sensor_id;sensor_type;location;lat;lon;timestamp;pressure;altitude;pressure_sealevel;temperature;humidity
70411;BME280;57832;46.038;11.398;2023-01-16T00:00:54;95944.91;;;1.30;100.00
70411;BME280;57832;46.038;11.398;2023-01-16T00:03:20;95927.41;;;1.32;100.00
70411;BME280;57832;46.038;11.398;2023-01-16T00:05:46;95933.91;;;1.10;100.00
70411;BME280;57832;46.038;11.398;2023-01-16T00:08:12;95933.69;;;1.11;100.00
70411;BME280;57832;46.038;11.398;2023-01-16T00:10:38;95934.25;;;1.20;100.00
70411;BME280;57832;46.038;11.398;2023-01-16T00:13:03;95935.25;;;1.19;100.00
70411;BME280;57832;46.038;11.398;2023-01-16T00:15:29;95937.47;;;1.09;100.00
70411;BME280;57832;46.038;11.398;2023-01-16T00:17:55;95927.78;;;1.04;100.00
70411;BME280;57832;46.038;11.398;2023-01-16T00:20:21;95927.50;;;1.19;100.00
70411;BME280;57832;46.038;11.398;2023-01-16T00:22:46;95930.66;;;1.21;100.00
70411;BME280;57832;46.038;11.398;2023-01-16T00:25:12;95943.00;;;1.19;100.00
70411;BME280;57832;46.038;11.398;2023-01-16T00:27:37;95953.03;;;0.95;100.00
70411;BME280;57832;46.038;11.398;2023-01-16T00:30:05;95949.81;;;1.07;100.00
70411;BME280;57832;46.038;11.398;2023-01-16T00:32:31;95940.53;;;0.92;100.00
70411;BME280;57832;46.038;11.398;2023-01-16T00:34:56;95934.97;;;0.95;100.00
70411;BME280;57832;46.038;11.398;2023-01-16T00:37:22;95931.59;;;0.95;100.00
70411;BME280;57832;46.038;11.398;2023-01-16T00:39:47;95930.22;;;0.92;100.00
70411;BME280;57832;46.038;11.398;2023-01-16T00:42:14;95940.75;;;0.91;100.00
70411;BME280;57832;46.038;11.398;2023-01-16T00:44:40;95929.38;;;0.98;100.00
70411;BME280;57832;46.038;11.398;2023-01-16T00:47:05;95928.03;;;0.82;100.00
70411;BME280;57832;46.038;11.398;2023-01-16T00:49:31;95926.03;;;0.91;100.00
70411;BME280;57832;46.038;11.398;2023-01-16T00:51:57;95922.13;;;1.21;100.00
70411;BME280;57832;46.038;11.398;2023-01-16T00:54:22;95905.38;;;0.91;100.00
70411;BME280;57832;46.038;11.398;2023-01-16T00:56:48;95898.97;;;1.00;100.00
70411;BME280;57832;46.038;11.398;2023-01-16T00:59:13;95896.38;;;1.07;100.00
70411;BME280;57832;46.038;11.398;2023-01-16T01:01:39;95883.50;;;1.00;100.00
70411;BME280;57832;46.038;11.398;2023-01-16T01:04:04;95884.47;;;0.99;100.00
70411;BME280;57832;46.038;11.398;2023-01-16T01:06:30;95873.34;;;1.06;100.00
70411;BME280;57832;46.038;11.398;2023-01-16T01:08:55;95859.84;;;0.97;100.00
70411;BME280;57832;46.038;11.398;2023-01-16T01:11:22;95851.75;;;0.87;100.00
70411;BME280;57832;46.038;11.398;2023-01-16T01:13:49;95844.41;;;0.90;100.00
70411;BME280;57832;46.038;11.398;2023-01-16T01:16:15;95847.75;;;0.97;100.00
70411;BME280;57832;46.038;11.398;2023-01-16T01:18:41;95841.81;;;0.90;100.00
70411;BME280;57832;46.038;11.398;2023-01-16T01:21:07;95832.09;;;0.92;100.00
70411;BME280;57832;46.038;11.398;2023-01-16T01:23:33;95828.22;;;0.76;100.00
70411;BME280;57832;46.038;11.398;2023-01-16T01:26:05;95815.13;;;0.71;100.00
70411;BME280;57832;46.038;11.398;2023-01-16T01:28:31;95814.81;;;0.54;100.00
70411;BME280;57832;46.038;11.398;2023-01-16T01:31:02;95816.97;;;0.57;100.00
70411;BME280;57832;46.038;11.398;2023-01-16T01:33:27;95808.44;;;0.57;100.00
70411;BME280;57832;46.038;11.398;2023-01-16T01:35:52;95806.50;;;0.52;100.00
70411;BME280;57832;46.038;11.398;2023-01-16T01:38:18;95807.25;;;0.59;100.00
70411;BME280;57832;46.038;11.398;2023-01-16T01:40:43;95804.88;;;0.58;100.00
70411;BME280;57832;46.038;11.398;2023-01-16T01:43:12;95803.75;;;0.47;100.00
70411;BME280;57832;46.038;11.398;2023-01-16T01:45:39;95801.84;;;0.68;100.00
70411;BME280;57832;46.038;11.398;2023-01-16T01:50:45;95791.72;;;0.66;100.00
70411;BME280;57832;46.038;11.398;2023-01-16T01:53:17;95795.03;;;0.73;100.00
70411;BME280;57832;46.038;11.398;2023-01-16T01:55:44;95799.34;;;0.86;100.00
70411;BME280;57832;46.038;11.398;2023-01-16T01:58:15;95799.72;;;0.58;100.00
70411;BME280;57832;46.038;11.398;2023-01-16T02:00:46;95796.13;;;0.59;100.00
70411;BME280;57832;46.038;11.398;2023-01-16T02:03:15;95790.28;;;0.77;100.00
70411;BME280;57832;46.038;11.398;2023-01-16T02:05:46;95789.50;;;0.76;100.00
70411;BME280;57832;46.038;11.398;2023-01-16T02:08:18;95783.28;;;0.84;100.00
70411;BME280;57832;46.038;11.398;2023-01-16T02:10:49;95780.66;;;0.91;100.00
70411;BME280;57832;46.038;11.398;2023-01-16T02:13:16;95781.81;;;0.95;100.00
70411;BME280;57832;46.038;11.398;2023-01-16T02:15:42;95778.13;;;0.84;100.00
70411;BME280;57832;46.038;11.398;2023-01-16T02:18:28;95775.34;;;0.86;100.00
70411;BME280;57832;46.038;11.398;2023-01-16T02:24:42;95766.03;;;1.10;100.00
70411;BME280;57832;46.038;11.398;2023-01-16T02:27:27;95761.69;;;1.04;100.00
70411;BME280;57832;46.038;11.398;2023-01-16T02:33:05;95761.28;;;1.07;100.00
70411;BME280;57832;46.038;11.398;2023-01-16T02:36:13;95757.44;;;1.16;100.00
70411;BME280;57832;46.038;11.398;2023-01-16T02:38:47;95752.28;;;1.16;100.00
70411;BME280;57832;46.038;11.398;2023-01-16T02:47:38;95745.25;;;1.23;100.00
70411;BME280;57832;46.038;11.398;2023-01-16T02:50:01;95743.00;;;1.08;100.00
70411;BME280;57832;46.038;11.398;2023-01-16T02:52:58;95737.41;;;1.11;100.00
70411;BME280;57832;46.038;11.398;2023-01-16T02:55:36;95725.84;;;0.89;100.00
70411;BME280;57832;46.038;11.398;2023-01-16T02:58:05;95721.47;;;0.89;100.00
70411;BME280;57832;46.038;11.398;2023-01-16T03:00:31;95722.78;;;0.98;100.00
70411;BME280;57832;46.038;11.398;2023-01-16T03:02:58;95721.38;;;0.77;100.00
70411;BME280;57832;46.038;11.398;2023-01-16T03:05:24;95721.38;;;0.77;100.00
70411;BME280;57832;46.038;11.398;2023-01-16T03:11:17;95711.66;;;0.73;100.00
70411;BME280;57832;46.038;11.398;2023-01-16T03:22:33;95703.72;;;0.74;100.00
70411;BME280;57832;46.038;11.398;2023-01-16T03:25:44;95705.25;;;0.82;100.00
70411;BME280;57832;46.038;11.398;2023-01-16T03:28:19;95704.78;;;0.92;100.00
70411;BME280;57832;46.038;11.398;2023-01-16T03:30:48;95701.25;;;0.86;100.00
70411;BME280;57832;46.038;11.398;2023-01-16T03:38:44;95699.72;;;1.04;100.00
70411;BME280;57832;46.038;11.398;2023-01-16T03:41:15;95691.84;;;0.92;100.00
70411;BME280;57832;46.038;11.398;2023-01-16T03:43:42;95689.38;;;1.04;100.00
70411;BME280;57832;46.038;11.398;2023-01-16T03:46:16;95678.78;;;0.87;100.00
70411;BME280;57832;46.038;11.398;2023-01-16T03:51:26;95678.72;;;1.00;100.00
70411;BME280;57832;46.038;11.398;2023-01-16T03:59:26;95668.56;;;0.98;100.00
70411;BME280;57832;46.038;11.398;2023-01-16T04:02:04;95664.44;;;0.97;100.00
70411;BME280;57832;46.038;11.398;2023-01-16T04:10:30;95659.50;;;0.89;100.00
70411;BME280;57832;46.038;11.398;2023-01-16T04:13:18;95654.75;;;1.11;100.00
70411;BME280;57832;46.038;11.398;2023-01-16T04:15:47;95642.19;;;0.96;100.00
70411;BME280;57832;46.038;11.398;2023-01-16T04:18:14;95637.47;;;0.87;100.00
70411;BME280;57832;46.038;11.398;2023-01-16T04:20:43;95636.09;;;0.91;100.00
70411;BME280;57832;46.038;11.398;2023-01-16T04:23:12;95630.50;;;0.69;100.00
70411;BME280;57832;46.038;11.398;2023-01-16T04:25:38;95622.97;;;0.67;100.00
70411;BME280;57832;46.038;11.398;2023-01-16T04:28:03;95631.56;;;0.61;100.00
70411;BME280;57832;46.038;11.398;2023-01-16T04:30:29;95630.94;;;0.65;100.00
70411;BME280;57832;46.038;11.398;2023-01-16T04:32:54;95631.81;;;0.78;100.00
70411;BME280;57832;46.038;11.398;2023-01-16T04:35:20;95632.69;;;0.65;100.00
70411;BME280;57832;46.038;11.398;2023-01-16T04:37:46;95634.78;;;0.81;100.00
70411;BME280;57832;46.038;11.398;2023-01-16T04:40:12;95625.28;;;0.75;100.00
70411;BME280;57832;46.038;11.398;2023-01-16T04:42:37;95628.44;;;0.77;100.00
70411;BME280;57832;46.038;11.398;2023-01-16T04:45:03;95621.28;;;0.79;100.00
70411;BME280;57832;46.038;11.398;2023-01-16T04:47:29;95620.84;;;0.57;100.00
70411;BME280;57832;46.038;11.398;2023-01-16T04:49:54;95624.63;;;0.80;100.00
70411;BME280;57832;46.038;11.398;2023-01-16T04:52:20;95633.66;;;0.71;100.00
70411;BME280;57832;46.038;11.398;2023-01-16T04:54:45;95631.59;;;0.54;100.00
70411;BME280;57832;46.038;11.398;2023-01-16T04:57:11;95624.38;;;0.38;100.00
70411;BME280;57832;46.038;11.398;2023-01-16T04:59:36;95627.19;;;0.61;100.00
70411;BME280;57832;46.038;11.398;2023-01-16T05:02:02;95626.81;;;0.58;100.00
70411;BME280;57832;46.038;11.398;2023-01-16T05:04:27;95625.44;;;0.55;100.00
70411;BME280;57832;46.038;11.398;2023-01-16T05:06:53;95614.06;;;0.63;100.00
70411;BME280;57832;46.038;11.398;2023-01-16T05:09:18;95611.28;;;0.64;100.00
70411;BME280;57832;46.038;11.398;2023-01-16T05:11:44;95602.44;;;0.54;100.00
70411;BME280;57832;46.038;11.398;2023-01-16T05:14:09;95605.47;;;0.44;100.00
70411;BME280;57832;46.038;11.398;2023-01-16T05:16:37;95598.13;;;0.47;100.00
70411;BME280;57832;46.038;11.398;2023-01-16T05:19:03;95592.16;;;0.47;100.00
70411;BME280;57832;46.038;11.398;2023-01-16T05:21:29;95594.16;;;0.45;100.00
70411;BME280;57832;46.038;11.398;2023-01-16T05:23:55;95593.50;;;0.56;100.00
70411;BME280;57832;46.038;11.398;2023-01-16T05:26:21;95595.69;;;0.53;100.00
70411;BME280;57832;46.038;11.398;2023-01-16T05:28:46;95592.28;;;0.59;100.00
70411;BME280;57832;46.038;11.398;2023-01-16T05:31:12;95595.91;;;0.76;100.00
70411;BME280;57832;46.038;11.398;2023-01-16T05:33:37;95578.03;;;0.75;100.00
70411;BME280;57832;46.038;11.398;2023-01-16T05:36:03;95581.47;;;0.69;100.00
70411;BME280;57832;46.038;11.398;2023-01-16T05:38:28;95580.25;;;0.71;100.00
70411;BME280;57832;46.038;11.398;2023-01-16T05:40:54;95577.19;;;0.56;100.00
70411;BME280;57832;46.038;11.398;2023-01-16T05:43:20;95569.91;;;0.27;100.00
70411;BME280;57832;46.038;11.398;2023-01-16T05:45:46;95567.81;;;0.43;100.00
70411;BME280;57832;46.038;11.398;2023-01-16T05:48:11;95571.59;;;0.40;100.00
70411;BME280;57832;46.038;11.398;2023-01-16T05:50:37;95578.28;;;0.16;100.00
70411;BME280;57832;46.038;11.398;2023-01-16T05:53:03;95570.22;;;0.38;100.00
70411;BME280;57832;46.038;11.398;2023-01-16T05:55:28;95567.47;;;0.32;100.00
70411;BME280;57832;46.038;11.398;2023-01-16T05:57:54;95562.81;;;0.16;100.00
70411;BME280;57832;46.038;11.398;2023-01-16T06:00:19;95560.00;;;0.24;100.00
70411;BME280;57832;46.038;11.398;2023-01-16T06:02:45;95557.94;;;0.33;100.00
70411;BME280;57832;46.038;11.398;2023-01-16T06:05:12;95561.31;;;0.33;100.00
70411;BME280;57832;46.038;11.398;2023-01-16T06:07:37;95555.56;;;0.31;100.00
70411;BME280;57832;46.038;11.398;2023-01-16T06:10:03;95552.09;;;0.19;100.00
70411;BME280;57832;46.038;11.398;2023-01-16T06:12:29;95549.94;;;0.16;100.00
70411;BME280;57832;46.038;11.398;2023-01-16T06:14:57;95542.47;;;0.08;100.00
70411;BME280;57832;46.038;11.398;2023-01-16T06:17:23;95537.47;;;0.13;100.00
70411;BME280;57832;46.038;11.398;2023-01-16T06:19:48;95522.22;;;0.11;100.00
70411;BME280;57832;46.038;11.398;2023-01-16T06:22:14;95529.16;;;0.11;100.00
70411;BME280;57832;46.038;11.398;2023-01-16T06:24:40;95522.41;;;0.10;100.00
70411;BME280;57832;46.038;11.398;2023-01-16T06:27:06;95526.81;;;0.03;100.00
70411;BME280;57832;46.038;11.398;2023-01-16T06:29:32;95526.88;;;0.21;100.00
70411;BME280;57832;46.038;11.398;2023-01-16T06:31:58;95536.69;;;0.12;100.00
70411;BME280;57832;46.038;11.398;2023-01-16T06:34:23;95529.50;;;0.14;100.00
70411;BME280;57832;46.038;11.398;2023-01-16T06:36:49;95524.00;;;0.11;100.00
70411;BME280;57832;46.038;11.398;2023-01-16T06:39:15;95524.41;;;0.08;100.00
70411;BME280;57832;46.038;11.398;2023-01-16T06:41:41;95520.06;;;0.08;100.00
70411;BME280;57832;46.038;11.398;2023-01-16T06:44:07;95518.03;;;0.10;100.00
70411;BME280;57832;46.038;11.398;2023-01-16T06:46:32;95515.53;;;0.04;100.00
70411;BME280;57832;46.038;11.398;2023-01-16T06:48:58;95508.16;;;0.07;100.00
70411;BME280;57832;46.038;11.398;2023-01-16T06:51:23;95499.47;;;0.02;100.00
70411;BME280;57832;46.038;11.398;2023-01-16T06:53:49;95502.78;;;0.09;100.00
70411;BME280;57832;46.038;11.398;2023-01-16T06:56:14;95501.41;;;0.06;100.00
70411;BME280;57832;46.038;11.398;2023-01-16T06:58:40;95506.41;;;0.01;100.00
70411;BME280;57832;46.038;11.398;2023-01-16T07:01:06;95512.38;;;0.02;100.00
70411;BME280;57832;46.038;11.398;2023-01-16T07:03:32;95504.84;;;0.00;100.00
70411;BME280;57832;46.038;11.398;2023-01-16T07:05:58;95510.00;;;0.00;100.00
70411;BME280;57832;46.038;11.398;2023-01-16T07:08:23;95500.06;;;0.04;100.00
70411;BME280;57832;46.038;11.398;2023-01-16T07:10:49;95501.84;;;0.03;100.00
70411;BME280;57832;46.038;11.398;2023-01-16T07:13:14;95498.16;;;-0.08;100.00
70411;BME280;57832;46.038;11.398;2023-01-16T07:15:45;95501.91;;;-0.04;100.00
70411;BME280;57832;46.038;11.398;2023-01-16T07:18:29;95499.00;;;0.11;100.00
70411;BME280;57832;46.038;11.398;2023-01-16T07:21:13;95497.75;;;-0.05;100.00
70411;BME280;57832;46.038;11.398;2023-01-16T07:24:01;95497.56;;;-0.10;100.00
70411;BME280;57832;46.038;11.398;2023-01-16T07:26:28;95502.03;;;-0.24;100.00
70411;BME280;57832;46.038;11.398;2023-01-16T07:28:55;95501.00;;;-0.16;100.00
70411;BME280;57832;46.038;11.398;2023-01-16T07:31:22;95497.53;;;-0.03;100.00
70411;BME280;57832;46.038;11.398;2023-01-16T07:33:49;95491.09;;;0.06;100.00
70411;BME280;57832;46.038;11.398;2023-01-16T07:36:14;95490.16;;;0.01;100.00
70411;BME280;57832;46.038;11.398;2023-01-16T07:38:39;95496.59;;;-0.09;100.00
70411;BME280;57832;46.038;11.398;2023-01-16T07:41:05;95488.69;;;-0.14;100.00
70411;BME280;57832;46.038;11.398;2023-01-16T07:43:30;95490.88;;;-0.18;100.00
70411;BME280;57832;46.038;11.398;2023-01-16T07:45:56;95481.66;;;0.00;100.00
70411;BME280;57832;46.038;11.398;2023-01-16T07:48:22;95483.22;;;0.01;100.00
70411;BME280;57832;46.038;11.398;2023-01-16T07:50:52;95474.06;;;0.05;100.00
70411;BME280;57832;46.038;11.398;2023-01-16T07:53:18;95475.03;;;-0.14;100.00
70411;BME280;57832;46.038;11.398;2023-01-16T07:55:48;95466.84;;;0.14;100.00
70411;BME280;57832;46.038;11.398;2023-01-16T07:58:14;95465.31;;;0.06;100.00
70411;BME280;57832;46.038;11.398;2023-01-16T08:00:40;95458.69;;;-0.08;100.00
70411;BME280;57832;46.038;11.398;2023-01-16T08:03:05;95460.75;;;-0.17;100.00
70411;BME280;57832;46.038;11.398;2023-01-16T08:05:31;95463.94;;;-0.22;100.00
70411;BME280;57832;46.038;11.398;2023-01-16T08:07:56;95457.06;;;-0.28;100.00
70411;BME280;57832;46.038;11.398;2023-01-16T08:10:22;95466.06;;;-0.12;100.00
70411;BME280;57832;46.038;11.398;2023-01-16T08:12:47;95458.47;;;-0.07;100.00
70411;BME280;57832;46.038;11.398;2023-01-16T08:15:13;95457.75;;;-0.14;100.00
70411;BME280;57832;46.038;11.398;2023-01-16T08:17:39;95454.34;;;-0.08;100.00
70411;BME280;57832;46.038;11.398;2023-01-16T08:20:06;95457.81;;;0.05;100.00
70411;BME280;57832;46.038;11.398;2023-01-16T08:22:32;95445.34;;;0.02;100.00
70411;BME280;57832;46.038;11.398;2023-01-16T08:24:57;95439.78;;;0.23;100.00
70411;BME280;57832;46.038;11.398;2023-01-16T08:27:23;95434.03;;;0.21;100.00
70411;BME280;57832;46.038;11.398;2023-01-16T08:29:48;95425.69;;;0.26;100.00
70411;BME280;57832;46.038;11.398;2023-01-16T08:32:14;95413.28;;;0.35;100.00
70411;BME280;57832;46.038;11.398;2023-01-16T08:34:41;95411.66;;;0.40;100.00
70411;BME280;57832;46.038;11.398;2023-01-16T08:37:06;95401.66;;;0.44;100.00
70411;BME280;57832;46.038;11.398;2023-01-16T08:39:38;95393.66;;;0.52;100.00
70411;BME280;57832;46.038;11.398;2023-01-16T08:42:04;95388.91;;;0.49;100.00
70411;BME280;57832;46.038;11.398;2023-01-16T08:44:48;95385.50;;;0.37;100.00
70411;BME280;57832;46.038;11.398;2023-01-16T08:47:31;95384.97;;;0.46;100.00
70411;BME280;57832;46.038;11.398;2023-01-16T08:50:19;95382.25;;;0.60;100.00
70411;BME280;57832;46.038;11.398;2023-01-16T08:53:04;95377.59;;;0.69;100.00
70411;BME280;57832;46.038;11.398;2023-01-16T08:55:31;95371.34;;;0.76;100.00
70411;BME280;57832;46.038;11.398;2023-01-16T08:57:57;95371.13;;;0.78;100.00
70411;BME280;57832;46.038;11.398;2023-01-16T09:00:25;95375.78;;;0.69;100.00
70411;BME280;57832;46.038;11.398;2023-01-16T09:02:51;95369.94;;;0.92;100.00
70411;BME280;57832;46.038;11.398;2023-01-16T09:05:17;95366.91;;;0.95;100.00
70411;BME280;57832;46.038;11.398;2023-01-16T09:07:43;95362.38;;;0.79;100.00
70411;BME280;57832;46.038;11.398;2023-01-16T09:10:09;95364.69;;;0.69;100.00
70411;BME280;57832;46.038;11.398;2023-01-16T09:12:35;95356.63;;;0.77;100.00
70411;BME280;57832;46.038;11.398;2023-01-16T09:15:19;95344.91;;;0.93;100.00
70411;BME280;57832;46.038;11.398;2023-01-16T09:17:44;95342.22;;;0.99;100.00
70411;BME280;57832;46.038;11.398;2023-01-16T09:20:10;95337.41;;;1.03;100.00
70411;BME280;57832;46.038;11.398;2023-01-16T09:22:35;95348.59;;;1.27;100.00
70411;BME280;57832;46.038;11.398;2023-01-16T09:25:01;95347.13;;;1.31;100.00
70411;BME280;57832;46.038;11.398;2023-01-16T09:27:27;95346.84;;;1.09;100.00
70411;BME280;57832;46.038;11.398;2023-01-16T09:29:52;95347.91;;;1.20;100.00
70411;BME280;57832;46.038;11.398;2023-01-16T09:32:18;95343.34;;;1.04;100.00
70411;BME280;57832;46.038;11.398;2023-01-16T09:34:44;95340.09;;;0.96;100.00
70411;BME280;57832;46.038;11.398;2023-01-16T09:37:10;95341.97;;;1.31;100.00
70411;BME280;57832;46.038;11.398;2023-01-16T09:39:36;95347.69;;;1.33;100.00
70411;BME280;57832;46.038;11.398;2023-01-16T09:42:29;95343.22;;;1.64;100.00
70411;BME280;57832;46.038;11.398;2023-01-16T09:45:36;95342.31;;;1.47;100.00
70411;BME280;57832;46.038;11.398;2023-01-16T09:48:07;95338.50;;;1.49;100.00
70411;BME280;57832;46.038;11.398;2023-01-16T09:50:47;95336.13;;;1.36;100.00
70411;BME280;57832;46.038;11.398;2023-01-16T09:53:20;95331.59;;;1.20;100.00
70411;BME280;57832;46.038;11.398;2023-01-16T09:56:08;95329.84;;;1.32;100.00
70411;BME280;57832;46.038;11.398;2023-01-16T09:59:08;95322.63;;;1.22;100.00
70411;BME280;57832;46.038;11.398;2023-01-16T10:01:42;95316.81;;;1.74;100.00
70411;BME280;57832;46.038;11.398;2023-01-16T10:04:24;95304.84;;;2.09;100.00
70411;BME280;57832;46.038;11.398;2023-01-16T10:07:38;95295.56;;;2.37;100.00
70411;BME280;57832;46.038;11.398;2023-01-16T10:09:42;95290.66;;;2.23;100.00
70411;BME280;57832;46.038;11.398;2023-01-16T10:12:11;95288.84;;;2.24;100.00
70411;BME280;57832;46.038;11.398;2023-01-16T10:25:39;95259.69;;;2.57;100.00
70411;BME280;57832;46.038;11.398;2023-01-16T10:30:50;95226.78;;;3.38;100.00
70411;BME280;57832;46.038;11.398;2023-01-16T10:33:21;95219.25;;;3.19;100.00
70411;BME280;57832;46.038;11.398;2023-01-16T10:35:53;95213.25;;;3.35;100.00
70411;BME280;57832;46.038;11.398;2023-01-16T10:38:35;95205.59;;;3.85;100.00
70411;BME280;57832;46.038;11.398;2023-01-16T10:41:11;95196.38;;;3.72;100.00
70411;BME280;57832;46.038;11.398;2023-01-16T10:43:58;95182.97;;;3.36;100.00
70411;BME280;57832;46.038;11.398;2023-01-16T10:46:43;95166.53;;;4.19;100.00
70411;BME280;57832;46.038;11.398;2023-01-16T10:49:27;95171.84;;;4.07;100.00
70411;BME280;57832;46.038;11.398;2023-01-16T10:51:57;95166.75;;;3.90;100.00
70411;BME280;57832;46.038;11.398;2023-01-16T10:54:24;95167.94;;;3.38;100.00
70411;BME280;57832;46.038;11.398;2023-01-16T10:56:50;95165.31;;;3.55;100.00
70411;BME280;57832;46.038;11.398;2023-01-16T10:59:15;95147.94;;;3.56;100.00
70411;BME280;57832;46.038;11.398;2023-01-16T11:01:41;95126.38;;;5.45;100.00
70411;BME280;57832;46.038;11.398;2023-01-16T11:04:10;95108.56;;;5.16;100.00
70411;BME280;57832;46.038;11.398;2023-01-16T11:06:36;95102.16;;;4.16;100.00
70411;BME280;57832;46.038;11.398;2023-01-16T11:09:15;95101.59;;;4.14;100.00
70411;BME280;57832;46.038;11.398;2023-01-16T11:11:42;95093.00;;;5.26;100.00
70411;BME280;57832;46.038;11.398;2023-01-16T11:14:34;95091.38;;;4.29;100.00
70411;BME280;57832;46.038;11.398;2023-01-16T11:17:36;95082.56;;;3.76;100.00
70411;BME280;57832;46.038;11.398;2023-01-16T11:20:24;95072.69;;;3.73;100.00
70411;BME280;57832;46.038;11.398;2023-01-16T11:22:56;95070.97;;;3.34;100.00
70411;BME280;57832;46.038;11.398;2023-01-16T11:25:28;95072.47;;;3.52;100.00
70411;BME280;57832;46.038;11.398;2023-01-16T11:27:57;95071.44;;;4.08;100.00
70411;BME280;57832;46.038;11.398;2023-01-16T11:30:36;95055.72;;;5.05;100.00
70411;BME280;57832;46.038;11.398;2023-01-16T11:33:04;95048.84;;;3.76;100.00
70411;BME280;57832;46.038;11.398;2023-01-16T11:35:35;95040.44;;;4.23;100.00
70411;BME280;57832;46.038;11.398;2023-01-16T11:38:02;95030.50;;;3.55;100.00
70411;BME280;57832;46.038;11.398;2023-01-16T11:40:34;95016.97;;;4.08;100.00
70411;BME280;57832;46.038;11.398;2023-01-16T11:43:08;95009.56;;;3.62;100.00
70411;BME280;57832;46.038;11.398;2023-01-16T11:45:56;95018.56;;;3.81;100.00
70411;BME280;57832;46.038;11.398;2023-01-16T11:48:43;95007.13;;;3.77;100.00
70411;BME280;57832;46.038;11.398;2023-01-16T11:51:19;94995.09;;;3.98;100.00
70411;BME280;57832;46.038;11.398;2023-01-16T11:53:49;95002.31;;;3.91;100.00
70411;BME280;57832;46.038;11.398;2023-01-16T11:56:25;94993.56;;;3.97;100.00
70411;BME280;57832;46.038;11.398;2023-01-16T11:59:19;94996.91;;;3.65;100.00
70411;BME280;57832;46.038;11.398;2023-01-16T12:02:27;94987.28;;;3.33;100.00
70411;BME280;57832;46.038;11.398;2023-01-16T12:17:34;94947.34;;;3.34;100.00
70411;BME280;57832;46.038;11.398;2023-01-16T12:20:18;94946.66;;;3.17;100.00
70411;BME280;57832;46.038;11.398;2023-01-16T12:25:43;94931.81;;;2.85;100.00
70411;BME280;57832;46.038;11.398;2023-01-16T12:31:47;94914.66;;;3.28;100.00
70411;BME280;57832;46.038;11.398;2023-01-16T12:37:25;94914.69;;;3.06;100.00
70411;BME280;57832;46.038;11.398;2023-01-16T12:40:04;94909.31;;;2.86;100.00
70411;BME280;57832;46.038;11.398;2023-01-16T12:43:03;94898.28;;;2.95;100.00
70411;BME280;57832;46.038;11.398;2023-01-16T12:46:05;94892.13;;;3.01;100.00
70411;BME280;57832;46.038;11.398;2023-01-16T12:54:35;94885.69;;;2.82;100.00
70411;BME280;57832;46.038;11.398;2023-01-16T12:57:31;94881.72;;;2.96;100.00
70411;BME280;57832;46.038;11.398;2023-01-16T13:00:20;94873.31;;;2.84;100.00
70411;BME280;57832;46.038;11.398;2023-01-16T13:03:00;94869.44;;;3.14;100.00
70411;BME280;57832;46.038;11.398;2023-01-16T13:05:32;94860.03;;;3.08;100.00
70411;BME280;57832;46.038;11.398;2023-01-16T13:08:09;94854.88;;;3.08;100.00
70411;BME280;57832;46.038;11.398;2023-01-16T13:10:40;94853.06;;;3.08;100.00
70411;BME280;57832;46.038;11.398;2023-01-16T13:13:29;94851.00;;;3.10;100.00
70411;BME280;57832;46.038;11.398;2023-01-16T13:16:03;94847.53;;;3.27;100.00
70411;BME280;57832;46.038;11.398;2023-01-16T13:18:47;94840.19;;;3.18;100.00
70411;BME280;57832;46.038;11.398;2023-01-16T13:21:24;94830.22;;;3.32;100.00
70411;BME280;57832;46.038;11.398;2023-01-16T13:24:03;94832.72;;;3.22;100.00
70411;BME280;57832;46.038;11.398;2023-01-16T13:26:31;94825.38;;;3.46;100.00
70411;BME280;57832;46.038;11.398;2023-01-16T13:29:25;94820.81;;;3.26;100.00
70411;BME280;57832;46.038;11.398;2023-01-16T13:31:57;94812.81;;;3.28;100.00
70411;BME280;57832;46.038;11.398;2023-01-16T13:34:34;94813.50;;;3.18;100.00
70411;BME280;57832;46.038;11.398;2023-01-16T13:40:19;94808.94;;;3.25;100.00
70411;BME280;57832;46.038;11.398;2023-01-16T13:43:04;94803.66;;;3.15;100.00
70411;BME280;57832;46.038;11.398;2023-01-16T13:45:52;94797.09;;;3.07;100.00
70411;BME280;57832;46.038;11.398;2023-01-16T13:48:22;94798.69;;;3.08;100.00
70411;BME280;57832;46.038;11.398;2023-01-16T13:51:13;94786.88;;;3.23;100.00
70411;BME280;57832;46.038;11.398;2023-01-16T13:53:40;94790.16;;;3.13;100.00
70411;BME280;57832;46.038;11.398;2023-01-16T13:56:08;94785.59;;;2.93;100.00
70411;BME280;57832;46.038;11.398;2023-01-16T13:58:39;94789.00;;;2.98;100.00
70411;BME280;57832;46.038;11.398;2023-01-16T14:01:06;94787.38;;;2.87;100.00
70411;BME280;57832;46.038;11.398;2023-01-16T14:03:35;94786.19;;;3.00;100.00
70411;BME280;57832;46.038;11.398;2023-01-16T14:11:35;94785.09;;;2.96;100.00
70411;BME280;57832;46.038;11.398;2023-01-16T14:17:05;94783.41;;;3.12;100.00
70411;BME280;57832;46.038;11.398;2023-01-16T14:19:47;94782.28;;;2.97;100.00
70411;BME280;57832;46.038;11.398;2023-01-16T14:22:21;94775.41;;;3.13;100.00
70411;BME280;57832;46.038;11.398;2023-01-16T14:24:52;94784.16;;;3.07;100.00
70411;BME280;57832;46.038;11.398;2023-01-16T14:27:23;94779.91;;;2.96;100.00
70411;BME280;57832;46.038;11.398;2023-01-16T14:29:57;94774.50;;;2.97;100.00
70411;BME280;57832;46.038;11.398;2023-01-16T14:32:26;94773.47;;;2.98;100.00
70411;BME280;57832;46.038;11.398;2023-01-16T14:35:14;94768.78;;;2.95;100.00
70411;BME280;57832;46.038;11.398;2023-01-16T14:37:45;94767.34;;;2.77;100.00
70411;BME280;57832;46.038;11.398;2023-01-16T14:40:21;94772.44;;;2.99;100.00
70411;BME280;57832;46.038;11.398;2023-01-16T14:43:11;94767.50;;;2.98;100.00
70411;BME280;57832;46.038;11.398;2023-01-16T14:49:20;94768.25;;;2.93;100.00
70411;BME280;57832;46.038;11.398;2023-01-16T14:52:09;94768.81;;;3.00;100.00
70411;BME280;57832;46.038;11.398;2023-01-16T14:54:55;94766.25;;;3.00;100.00